Arklow Cadet — EIRP3 — position and weather

sailwx.info

Track history (hours):
 
Tides and Currents Weather Stations Pressure Air Temp Water Temp Dewpoint Dewpoint Depression Visibility Wind Speed Wind Dir Waves Ship Positions

Arklow Cadet

Last reported at 2018-Jul-14 13:08 UTC. Time now 2018-Jul-18 12:11 UTC.
Position N 54°05' W 006°13'.

Length 87 m; draft 5.8 m.

Type: Cargo ship. MMSI: 250004022.

Date/timePositionNaut miles runAvg speedWind from/ knotsBaromVisibWave heightAir tempDewpointWater temp
2018-Jul-14 13:08N 54°05' W 006°13'110.8
2018-Jul-14 13:00N 54°04' W 006°11'510.3
2018-Jul-14 12:30N 54°01' W 006°03'4 8.6
2018-Jul-14 12:00N 53°58' W 005°58'5 9.9
2018-Jul-14 11:30N 53°53' W 005°56'510.3
2018-Jul-14 11:00N 53°48' W 005°53'2311.1
2018-Jul-14 08:54N 53°26' W 005°42'512.5
2018-Jul-14 08:30N 53°21' W 005°39'612.1
2018-Jul-14 08:00N 53°15' W 005°37'1412.3
2018-Jul-14 06:52N 53°02' W 005°32'412.1
2018-Jul-14 06:30N 52°57' W 005°32'611.6
2018-Jul-14 06:00N 52°51' W 005°34'610.8
2018-Jul-14 05:30N 52°46' W 005°35'610.1
2018-Jul-14 04:57N 52°41' W 005°36'8 9.0
2018-Jul-14 04:06N 52°33' W 005°38'1 8.7
2018-Jul-14 04:00N 52°32' W 005°38'14 7.4
2018-Jul-14 02:08N 52°18' W 005°42'264 9.7
2018-Jul-12 22:55N 47°54' W 005°57'410.1
2018-Jul-12 22:29N 47°52' W 005°51'510.3
2018-Jul-12 22:00N 47°50' W 005°44'510.2
2018-Jul-12 21:30N 47°47' W 005°38'1810.0
2018-Jul-12 19:40N 47°39' W 005°13'3 9.6
2018-Jul-12 19:22N 47°38' W 005°10'115 9.7
2018-Jul-12 07:28N 46°43' W 002°40'5 9.9
2018-Jul-12 07:00N 46°41' W 002°34'5 9.9
2018-Jul-12 06:30N 46°39' W 002°28'510.0
2018-Jul-12 06:00N 46°37' W 002°21'510.0
2018-Jul-12 05:30N 46°34' W 002°15'510.0
2018-Jul-12 05:00N 46°32' W 002°09'5 9.7
2018-Jul-12 04:30N 46°30' W 002°02'5 9.7
2018-Jul-12 04:00N 46°28' W 001°56'5 9.5
2018-Jul-12 03:30N 46°27' W 001°49'2 4.8
2018-Jul-12 03:00N 46°30' W 001°48'0 0.6
2018-Jul-12 02:30N 46°30' W 001°48'0 0.1
2018-Jul-12 02:00N 46°30' W 001°47'0 0.0
2018-Jul-12 01:30N 46°30' W 001°47'0 0.0
2018-Jul-12 01:00N 46°30' W 001°47'0 0.0
2018-Jul-12 00:30N 46°30' W 001°47'0 0.0
2018-Jul-12 00:00N 46°30' W 001°47'0 0.0
2018-Jul-11 23:30N 46°30' W 001°47'0 0.0
2018-Jul-11 23:00N 46°30' W 001°47'0 0.0
2018-Jul-11 22:30N 46°30' W 001°47'0 0.0
2018-Jul-11 22:00N 46°30' W 001°47'0 0.0
2018-Jul-11 21:30N 46°30' W 001°47'0 0.0
2018-Jul-11 21:00N 46°30' W 001°47'0 0.0
2018-Jul-11 20:30N 46°30' W 001°47'0 0.0
2018-Jul-11 20:00N 46°30' W 001°47'0 0.0
2018-Jul-11 19:30N 46°30' W 001°47'0 0.0
2018-Jul-11 19:00N 46°30' W 001°47'0 0.0
2018-Jul-11 18:30N 46°30' W 001°47'0 0.0
2018-Jul-11 18:00N 46°30' W 001°47'0 0.0
2018-Jul-11 17:24N 46°30' W 001°47'0 0.0
2018-Jul-11 17:00N 46°30' W 001°47'0 0.0
2018-Jul-11 16:30N 46°30' W 001°47'0 0.0
2018-Jul-11 16:00N 46°30' W 001°47'0 0.0
2018-Jul-11 15:30N 46°30' W 001°47'0 0.0
2018-Jul-11 15:00N 46°30' W 001°47'0 0.0
2018-Jul-11 14:30N 46°30' W 001°47'0 0.0
2018-Jul-11 14:00N 46°30' W 001°47'0 0.0
2018-Jul-11 13:30N 46°30' W 001°47'0 0.0
2018-Jul-11 13:00N 46°30' W 001°47'0 0.0
2018-Jul-11 12:30N 46°30' W 001°47'0 0.0
2018-Jul-11 12:00N 46°30' W 001°47'0 0.0
2018-Jul-11 11:30N 46°30' W 001°47'0 0.0
2018-Jul-11 11:00N 46°30' W 001°47'0 0.0
2018-Jul-11 10:30N 46°30' W 001°47'0 0.0
2018-Jul-11 10:00N 46°30' W 001°47'0 0.0
2018-Jul-11 09:30N 46°30' W 001°47'0 0.0
2018-Jul-11 09:00N 46°30' W 001°47'0 0.0
2018-Jul-11 08:30N 46°30' W 001°47'0 0.0
2018-Jul-11 08:00N 46°30' W 001°47'0 0.0
2018-Jul-11 07:30N 46°30' W 001°47'0 0.0
2018-Jul-11 07:00N 46°30' W 001°47'0 0.0
2018-Jul-11 06:30N 46°30' W 001°47'0 0.0
2018-Jul-11 06:00N 46°30' W 001°47'0 0.0
2018-Jul-11 05:30N 46°30' W 001°47'0 0.0
2018-Jul-11 05:00N 46°30' W 001°47'0 0.0
2018-Jul-11 04:30N 46°30' W 001°47'0 0.0
2018-Jul-11 04:00N 46°30' W 001°47'0 0.0
2018-Jul-11 03:30N 46°30' W 001°47'0 0.0
2018-Jul-11 03:00N 46°30' W 001°47'0 0.0
2018-Jul-11 02:30N 46°30' W 001°47'0 0.4
2018-Jul-11 02:01N 46°30' W 001°48'2 4.2
2018-Jul-11 01:30N 46°28' W 001°48'5 9.7
2018-Jul-11 01:00N 46°24' W 001°53'3 5.9
2018-Jul-11 00:30N 46°25' W 001°56'4 7.0
2018-Jul-11 00:00N 46°28' W 002°00'4 7.0
2018-Jul-10 23:30N 46°30' W 002°04'3 7.0
2018-Jul-10 23:00N 46°32' W 002°09'4 7.1
2018-Jul-10 22:29N 46°33' W 002°13'4 7.2
2018-Jul-10 21:59N 46°35' W 002°18'4 7.4
2018-Jul-10 21:30N 46°37' W 002°23'4 8.3
2018-Jul-10 21:00N 46°39' W 002°28'4 8.4
2018-Jul-10 20:30N 46°40' W 002°33'4 8.6
2018-Jul-10 20:00N 46°43' W 002°39'4 9.0
2018-Jul-10 19:30N 46°45' W 002°45'5 9.8
2018-Jul-10 19:00N 46°47' W 002°51'5 9.9
2018-Jul-10 18:30N 46°49' W 002°58'5 9.8
2018-Jul-10 18:00N 46°51' W 003°04'5 9.7
2018-Jul-10 17:30N 46°54' W 003°10'5 9.9
2018-Jul-10 17:00N 46°56' W 003°17'510.2
2018-Jul-10 16:30N 46°59' W 003°23'510.1
2018-Jul-10 15:58N 47°01' W 003°30'510.0
2018-Jul-10 15:30N 47°03' W 003°36'5 9.9
2018-Jul-10 15:00N 47°05' W 003°43'510.0
2018-Jul-10 14:30N 47°08' W 003°49'510.2
2018-Jul-10 14:00N 47°10' W 003°56'510.4
2018-Jul-10 13:30N 47°13' W 004°03'610.4
2018-Jul-10 12:53N 47°15' W 004°11'410.3
2018-Jul-10 12:29N 47°17' W 004°17'710.4
2018-Jul-10 11:47N 47°21' W 004°26'510.3
2018-Jul-10 11:15N 47°23' W 004°33'310.2
2018-Jul-10 10:56N 47°25' W 004°37'1010.1
2018-Jul-10 09:58N 47°29' W 004°50'5 9.7
2018-Jul-10 09:30N 47°31' W 004°56'5 9.5
2018-Jul-10 09:00N 47°33' W 005°03'5 9.7
2018-Jul-10 08:30N 47°35' W 005°09'510.1
2018-Jul-10 08:00N 47°38' W 005°15'1211.4
2018-Jul-10 06:58N 47°43' W 005°31'3612.1
2018-Jul-10 03:58N 48°13' W 006°01'2412.1
2018-Jul-10 01:58N 48°37' W 006°13'6611.6
2018-Jul-09 20:18N 49°42' W 006°04'412.0
2018-Jul-09 19:59N 49°46' W 006°04'1212.3
2018-Jul-09 18:59N 49°58' W 006°02'612.4
2018-Jul-09 18:28N 50°04' W 006°02'1812.7
2018-Jul-09 17:02N 50°23' W 006°02'112.0
2018-Jul-09 16:56N 50°24' W 006°02'2112.2
2018-Jul-09 15:15N 50°44' W 006°02'311.8
2018-Jul-09 14:58N 50°48' W 006°01'511.8
2018-Jul-09 14:30N 50°53' W 006°01'711.7
2018-Jul-09 13:56N 50°60' W 006°01'5012.3
2018-Jul-09 09:51N 51°50' W 005°57'513.6
2018-Jul-09 09:29N 51°55' W 005°55'713.6
2018-Jul-09 08:57N 52°02' W 005°55'613.2
2018-Jul-09 08:30N 52°07' W 005°52'612.6
2018-Jul-09 08:00N 52°14' W 005°49'612.7
2018-Jul-09 07:29N 52°20' W 005°47'2511.3
2018-Jul-09 05:17N 52°45' W 005°40'310.4
2018-Jul-09 05:00N 52°47' W 005°39'510.3
2018-Jul-09 04:30N 52°53' W 005°38'510.1
2018-Jul-09 04:00N 52°58' W 005°37'1210.2
2018-Jul-09 02:51N 53°09' W 005°34'1612.0
2018-Jul-09 01:33N 53°25' W 005°30'3612.2
2018-Jul-08 22:36N 54°00' W 005°20'212.2
2018-Jul-08 22:27N 54°02' W 005°20'512.2
2018-Jul-08 22:00N 54°07' W 005°18'612.1
2018-Jul-08 21:30N 54°14' W 005°18'612.1
2018-Jul-08 21:00N 54°20' W 005°17'611.8
2018-Jul-08 20:30N 54°25' W 005°17'611.7
2018-Jul-08 20:00N 54°31' W 005°19'611.6
2018-Jul-08 19:30N 54°37' W 005°23'612.1
2018-Jul-08 19:00N 54°42' W 005°28'611.2
2018-Jul-08 18:30N 54°43' W 005°37'611.4
2018-Jul-08 18:00N 54°41' W 005°47'6 0.7
2018-Jul-08 09:51N 54°37' W 005°54'0 0.0
2018-Jul-08 09:27N 54°37' W 005°54'0 0.0
2018-Jul-08 08:51N 54°37' W 005°54'0 0.0
2018-Jul-08 08:27N 54°37' W 005°54'0 0.0
2018-Jul-07 19:33N 54°37' W 005°54'0 0.0
2018-Jul-07 19:27N 54°37' W 005°54'0 0.0
2018-Jul-07 18:51N 54°37' W 005°54'0 0.0
2018-Jul-07 18:27N 54°37' W 005°54'0 0.0
2018-Jul-07 17:21N 54°37' W 005°54'0 0.0
2018-Jul-07 16:57N 54°37' W 005°54'0 0.0
2018-Jul-07 16:27N 54°37' W 005°54'0 0.0
2018-Jul-07 15:57N 54°37' W 005°54'0 0.0
2018-Jul-07 15:27N 54°37' W 005°54'0 0.0
2018-Jul-07 14:57N 54°37' W 005°54'0 0.0
2018-Jul-07 14:27N 54°37' W 005°54'0 0.0
2018-Jul-07 13:57N 54°37' W 005°54'0 0.0
2018-Jul-07 13:27N 54°37' W 005°54'0 0.0
2018-Jul-07 12:51N 54°37' W 005°54'0 0.0
2018-Jul-07 12:21N 54°37' W 005°54'0 0.0
2018-Jul-07 11:57N 54°37' W 005°54'0 0.0
2018-Jul-07 11:27N 54°37' W 005°54'0 0.0
2018-Jul-07 10:57N 54°37' W 005°54'0 0.0
2018-Jul-07 10:27N 54°37' W 005°54'0 0.0
2018-Jul-07 09:51N 54°37' W 005°54'0 0.0
2018-Jul-07 09:21N 54°37' W 005°54'0 0.0
2018-Jul-07 08:57N 54°37' W 005°54'0 0.0
2018-Jul-07 08:27N 54°37' W 005°54'0 0.0
2018-Jul-07 07:58N 54°37' W 005°54'0 0.0
2018-Jul-07 07:27N 54°37' W 005°54'0 0.0
2018-Jul-07 06:57N 54°37' W 005°54'0 0.0
2018-Jul-07 06:27N 54°37' W 005°54'0 0.0
2018-Jul-07 05:57N 54°37' W 005°54'0 0.0
2018-Jul-07 05:27N 54°37' W 005°54'0 0.0
2018-Jul-07 04:45N 54°37' W 005°54'0 0.0
2018-Jul-07 04:27N 54°37' W 005°54'0 0.0
2018-Jul-07 03:57N 54°37' W 005°54'0 0.0
2018-Jul-07 03:21N 54°37' W 005°54'0 0.0
2018-Jul-07 02:57N 54°37' W 005°54'0 0.0
2018-Jul-07 02:27N 54°37' W 005°54'0 0.0
2018-Jul-07 01:57N 54°37' W 005°54'0 0.0
2018-Jul-07 01:27N 54°37' W 005°54'0 0.0
2018-Jul-07 00:57N 54°37' W 005°54'0 0.0
2018-Jul-07 00:27N 54°37' W 005°54'0 0.0
2018-Jul-06 23:57N 54°37' W 005°54'0 0.0
2018-Jul-06 23:27N 54°37' W 005°54'0 0.0
2018-Jul-06 22:57N 54°37' W 005°54'0 0.0
2018-Jul-06 22:27N 54°37' W 005°54'0 0.0
2018-Jul-06 21:58N 54°37' W 005°54'0 0.0
2018-Jul-06 21:27N 54°37' W 005°54'0 0.0
2018-Jul-06 20:57N 54°37' W 005°54'0 0.0
2018-Jul-06 20:27N 54°37' W 005°54'0 0.0
2018-Jul-06 19:57N 54°37' W 005°54'0 0.0
2018-Jul-06 19:27N 54°37' W 005°54'0 0.0
2018-Jul-06 18:57N 54°37' W 005°54'0 0.0
2018-Jul-06 18:27N 54°37' W 005°54'0 0.0
2018-Jul-06 17:58N 54°37' W 005°54'0 0.0
2018-Jul-06 17:27N 54°37' W 005°54'0 0.0
2018-Jul-06 16:51N 54°37' W 005°54'0 0.0
2018-Jul-06 16:27N 54°37' W 005°54'0 0.0
2018-Jul-06 15:57N 54°37' W 005°54'0 0.0
2018-Jul-06 15:27N 54°37' W 005°54'0 0.0
2018-Jul-06 14:57N 54°37' W 005°54'0 0.0
2018-Jul-06 14:27N 54°37' W 005°54'0 0.0
2018-Jul-06 13:58N 54°37' W 005°54'1 1.5
2018-Jul-06 13:30N 54°38' W 005°53'4 8.6
2018-Jul-06 13:00N 54°41' W 005°48'5 9.9
2018-Jul-06 12:30N 54°44' W 005°41'0 0.8
2018-Jul-06 12:00N 54°43' W 005°40'2 3.4
2018-Jul-06 11:30N 54°42' W 005°40'1 1.2
2018-Jul-06 11:00N 54°41' W 005°41'0 0.0
2018-Jul-06 10:27N 54°41' W 005°41'0 0.0
2018-Jul-06 09:57N 54°41' W 005°41'0 0.0
2018-Jul-06 09:27N 54°41' W 005°41'0 0.0
2018-Jul-06 08:57N 54°41' W 005°41'0 0.0
2018-Jul-06 08:27N 54°41' W 005°41'0 0.0
2018-Jul-06 07:57N 54°41' W 005°41'0 0.0
2018-Jul-06 07:27N 54°41' W 005°41'0 1.0
2018-Jul-06 06:57N 54°42' W 005°41'3 6.4
2018-Jul-06 06:30N 54°43' W 005°36'611.1
2018-Jul-06 06:00N 54°42' W 005°27'4 8.4
2018-Jul-06 05:30N 54°38' W 005°24'4 8.4
2018-Jul-06 05:00N 54°34' W 005°21'4 8.5
2018-Jul-06 04:30N 54°31' W 005°17'5 9.6
2018-Jul-06 04:00N 54°26' W 005°15'5 9.9
2018-Jul-06 03:30N 54°21' W 005°16'5 9.5
2018-Jul-06 02:59N 54°16' W 005°17'5 9.7
2018-Jul-06 02:30N 54°11' W 005°18'9 9.6
2018-Jul-06 01:33N 54°02' W 005°20'63 5.5
2018-Jul-05 14:13N 53°00' W 005°33'710.1
2018-Jul-05 13:30N 52°53' W 005°34'3210.1
2018-Jul-05 10:21N 52°21' W 005°40'3 8.9
2018-Jul-05 10:00N 52°18' W 005°41'47 7.4
2018-Jul-05 03:36N 51°31' W 005°52'10 8.6
2018-Jul-05 02:26N 51°21' W 005°52'4 8.8
2018-Jul-05 02:00N 51°18' W 005°52'  
Track history (hours):
 
Tides and Currents Weather Stations Pressure Air Temp Water Temp Dewpoint Dewpoint Depression Visibility Wind Speed Wind Dir Waves Ship Positions

Arklow Cadet

Last reported at 2018-Jul-14 13:08 UTC. Time now 2018-Jul-18 12:11 UTC.
Position N 54°05' W 006°13'.

Length 87 m; draft 5.8 m.

Type: Cargo ship. MMSI: 250004022.

Date/timePositionNaut miles runAvg speedWind from/ knotsBaromVisibWave heightAir tempDewpointWater temp
2018-Jul-14 13:08N 54°05' W 006°13'110.8
2018-Jul-14 13:00N 54°04' W 006°11'510.3
2018-Jul-14 12:30N 54°01' W 006°03'4 8.6
2018-Jul-14 12:00N 53°58' W 005°58'5 9.9
2018-Jul-14 11:30N 53°53' W 005°56'510.3
2018-Jul-14 11:00N 53°48' W 005°53'2311.1
2018-Jul-14 08:54N 53°26' W 005°42'512.5
2018-Jul-14 08:30N 53°21' W 005°39'612.1
2018-Jul-14 08:00N 53°15' W 005°37'1412.3
2018-Jul-14 06:52N 53°02' W 005°32'412.1
2018-Jul-14 06:30N 52°57' W 005°32'611.6
2018-Jul-14 06:00N 52°51' W 005°34'610.8
2018-Jul-14 05:30N 52°46' W 005°35'610.1
2018-Jul-14 04:57N 52°41' W 005°36'8 9.0
2018-Jul-14 04:06N 52°33' W 005°38'1 8.7
2018-Jul-14 04:00N 52°32' W 005°38'14 7.4
2018-Jul-14 02:08N 52°18' W 005°42'264 9.7
2018-Jul-12 22:55N 47°54' W 005°57'410.1
2018-Jul-12 22:29N 47°52' W 005°51'510.3
2018-Jul-12 22:00N 47°50' W 005°44'510.2
2018-Jul-12 21:30N 47°47' W 005°38'1810.0
2018-Jul-12 19:40N 47°39' W 005°13'3 9.6
2018-Jul-12 19:22N 47°38' W 005°10'115 9.7
2018-Jul-12 07:28N 46°43' W 002°40'5 9.9
2018-Jul-12 07:00N 46°41' W 002°34'5 9.9
2018-Jul-12 06:30N 46°39' W 002°28'510.0
2018-Jul-12 06:00N 46°37' W 002°21'510.0
2018-Jul-12 05:30N 46°34' W 002°15'510.0
2018-Jul-12 05:00N 46°32' W 002°09'5 9.7
2018-Jul-12 04:30N 46°30' W 002°02'5 9.7
2018-Jul-12 04:00N 46°28' W 001°56'5 9.5
2018-Jul-12 03:30N 46°27' W 001°49'2 4.8
2018-Jul-12 03:00N 46°30' W 001°48'0 0.6
2018-Jul-12 02:30N 46°30' W 001°48'0 0.1
2018-Jul-12 02:00N 46°30' W 001°47'0 0.0
2018-Jul-12 01:30N 46°30' W 001°47'0 0.0
2018-Jul-12 01:00N 46°30' W 001°47'0 0.0
2018-Jul-12 00:30N 46°30' W 001°47'0 0.0
2018-Jul-12 00:00N 46°30' W 001°47'0 0.0
2018-Jul-11 23:30N 46°30' W 001°47'0 0.0
2018-Jul-11 23:00N 46°30' W 001°47'0 0.0
2018-Jul-11 22:30N 46°30' W 001°47'0 0.0
2018-Jul-11 22:00N 46°30' W 001°47'0 0.0
2018-Jul-11 21:30N 46°30' W 001°47'0 0.0
2018-Jul-11 21:00N 46°30' W 001°47'0 0.0
2018-Jul-11 20:30N 46°30' W 001°47'0 0.0
2018-Jul-11 20:00N 46°30' W 001°47'0 0.0
2018-Jul-11 19:30N 46°30' W 001°47'0 0.0
2018-Jul-11 19:00N 46°30' W 001°47'0 0.0
2018-Jul-11 18:30N 46°30' W 001°47'0 0.0
2018-Jul-11 18:00N 46°30' W 001°47'0 0.0
2018-Jul-11 17:24N 46°30' W 001°47'0 0.0
2018-Jul-11 17:00N 46°30' W 001°47'0 0.0
2018-Jul-11 16:30N 46°30' W 001°47'0 0.0
2018-Jul-11 16:00N 46°30' W 001°47'0 0.0
2018-Jul-11 15:30N 46°30' W 001°47'0 0.0
2018-Jul-11 15:00N 46°30' W 001°47'0 0.0
2018-Jul-11 14:30N 46°30' W 001°47'0 0.0
2018-Jul-11 14:00N 46°30' W 001°47'0 0.0
2018-Jul-11 13:30N 46°30' W 001°47'0 0.0
2018-Jul-11 13:00N 46°30' W 001°47'0 0.0
2018-Jul-11 12:30N 46°30' W 001°47'0 0.0
2018-Jul-11 12:00N 46°30' W 001°47'0 0.0
2018-Jul-11 11:30N 46°30' W 001°47'0 0.0
2018-Jul-11 11:00N 46°30' W 001°47'0 0.0
2018-Jul-11 10:30N 46°30' W 001°47'0 0.0
2018-Jul-11 10:00N 46°30' W 001°47'0 0.0
2018-Jul-11 09:30N 46°30' W 001°47'0 0.0
2018-Jul-11 09:00N 46°30' W 001°47'0 0.0
2018-Jul-11 08:30N 46°30' W 001°47'0 0.0
2018-Jul-11 08:00N 46°30' W 001°47'0 0.0
2018-Jul-11 07:30N 46°30' W 001°47'0 0.0
2018-Jul-11 07:00N 46°30' W 001°47'0 0.0
2018-Jul-11 06:30N 46°30' W 001°47'0 0.0
2018-Jul-11 06:00N 46°30' W 001°47'0 0.0
2018-Jul-11 05:30N 46°30' W 001°47'0 0.0
2018-Jul-11 05:00N 46°30' W 001°47'0 0.0
2018-Jul-11 04:30N 46°30' W 001°47'0 0.0
2018-Jul-11 04:00N 46°30' W 001°47'0 0.0
2018-Jul-11 03:30N 46°30' W 001°47'0 0.0
2018-Jul-11 03:00N 46°30' W 001°47'0 0.0
2018-Jul-11 02:30N 46°30' W 001°47'0 0.4
2018-Jul-11 02:01N 46°30' W 001°48'2 4.2
2018-Jul-11 01:30N 46°28' W 001°48'5 9.7
2018-Jul-11 01:00N 46°24' W 001°53'3 5.9
2018-Jul-11 00:30N 46°25' W 001°56'4 7.0
2018-Jul-11 00:00N 46°28' W 002°00'4 7.0
2018-Jul-10 23:30N 46°30' W 002°04'3 7.0
2018-Jul-10 23:00N 46°32' W 002°09'4 7.1
2018-Jul-10 22:29N 46°33' W 002°13'4 7.2
2018-Jul-10 21:59N 46°35' W 002°18'4 7.4
2018-Jul-10 21:30N 46°37' W 002°23'4 8.3
2018-Jul-10 21:00N 46°39' W 002°28'4 8.4
2018-Jul-10 20:30N 46°40' W 002°33'4 8.6
2018-Jul-10 20:00N 46°43' W 002°39'4 9.0
2018-Jul-10 19:30N 46°45' W 002°45'5 9.8
2018-Jul-10 19:00N 46°47' W 002°51'5 9.9
2018-Jul-10 18:30N 46°49' W 002°58'5 9.8
2018-Jul-10 18:00N 46°51' W 003°04'5 9.7
2018-Jul-10 17:30N 46°54' W 003°10'5 9.9
2018-Jul-10 17:00N 46°56' W 003°17'510.2
2018-Jul-10 16:30N 46°59' W 003°23'510.1
2018-Jul-10 15:58N 47°01' W 003°30'510.0
2018-Jul-10 15:30N 47°03' W 003°36'5 9.9
2018-Jul-10 15:00N 47°05' W 003°43'510.0
2018-Jul-10 14:30N 47°08' W 003°49'510.2
2018-Jul-10 14:00N 47°10' W 003°56'510.4
2018-Jul-10 13:30N 47°13' W 004°03'610.4
2018-Jul-10 12:53N 47°15' W 004°11'410.3
2018-Jul-10 12:29N 47°17' W 004°17'710.4
2018-Jul-10 11:47N 47°21' W 004°26'510.3
2018-Jul-10 11:15N 47°23' W 004°33'310.2
2018-Jul-10 10:56N 47°25' W 004°37'1010.1
2018-Jul-10 09:58N 47°29' W 004°50'5 9.7
2018-Jul-10 09:30N 47°31' W 004°56'5 9.5
2018-Jul-10 09:00N 47°33' W 005°03'5 9.7
2018-Jul-10 08:30N 47°35' W 005°09'510.1
2018-Jul-10 08:00N 47°38' W 005°15'1211.4
2018-Jul-10 06:58N 47°43' W 005°31'3612.1
2018-Jul-10 03:58N 48°13' W 006°01'2412.1
2018-Jul-10 01:58N 48°37' W 006°13'6611.6
2018-Jul-09 20:18N 49°42' W 006°04'412.0
2018-Jul-09 19:59N 49°46' W 006°04'1212.3
2018-Jul-09 18:59N 49°58' W 006°02'612.4
2018-Jul-09 18:28N 50°04' W 006°02'1812.7
2018-Jul-09 17:02N 50°23' W 006°02'112.0
2018-Jul-09 16:56N 50°24' W 006°02'2112.2
2018-Jul-09 15:15N 50°44' W 006°02'311.8
2018-Jul-09 14:58N 50°48' W 006°01'511.8
2018-Jul-09 14:30N 50°53' W 006°01'711.7
2018-Jul-09 13:56N 50°60' W 006°01'5012.3
2018-Jul-09 09:51N 51°50' W 005°57'513.6
2018-Jul-09 09:29N 51°55' W 005°55'713.6
2018-Jul-09 08:57N 52°02' W 005°55'613.2
2018-Jul-09 08:30N 52°07' W 005°52'612.6
2018-Jul-09 08:00N 52°14' W 005°49'612.7
2018-Jul-09 07:29N 52°20' W 005°47'2511.3
2018-Jul-09 05:17N 52°45' W 005°40'310.4
2018-Jul-09 05:00N 52°47' W 005°39'510.3
2018-Jul-09 04:30N 52°53' W 005°38'510.1
2018-Jul-09 04:00N 52°58' W 005°37'1210.2
2018-Jul-09 02:51N 53°09' W 005°34'1612.0
2018-Jul-09 01:33N 53°25' W 005°30'3612.2
2018-Jul-08 22:36N 54°00' W 005°20'212.2
2018-Jul-08 22:27N 54°02' W 005°20'512.2
2018-Jul-08 22:00N 54°07' W 005°18'612.1
2018-Jul-08 21:30N 54°14' W 005°18'612.1
2018-Jul-08 21:00N 54°20' W 005°17'611.8
2018-Jul-08 20:30N 54°25' W 005°17'611.7
2018-Jul-08 20:00N 54°31' W 005°19'611.6
2018-Jul-08 19:30N 54°37' W 005°23'612.1
2018-Jul-08 19:00N 54°42' W 005°28'611.2
2018-Jul-08 18:30N 54°43' W 005°37'611.4
2018-Jul-08 18:00N 54°41' W 005°47'6 0.7
2018-Jul-08 09:51N 54°37' W 005°54'0 0.0
2018-Jul-08 09:27N 54°37' W 005°54'0 0.0
2018-Jul-08 08:51N 54°37' W 005°54'0 0.0
2018-Jul-08 08:27N 54°37' W 005°54'0 0.0
2018-Jul-07 19:33N 54°37' W 005°54'0 0.0
2018-Jul-07 19:27N 54°37' W 005°54'0 0.0
2018-Jul-07 18:51N 54°37' W 005°54'0 0.0
2018-Jul-07 18:27N 54°37' W 005°54'0 0.0
2018-Jul-07 17:21N 54°37' W 005°54'0 0.0
2018-Jul-07 16:57N 54°37' W 005°54'0 0.0
2018-Jul-07 16:27N 54°37' W 005°54'0 0.0
2018-Jul-07 15:57N 54°37' W 005°54'0 0.0
2018-Jul-07 15:27N 54°37' W 005°54'0 0.0
2018-Jul-07 14:57N 54°37' W 005°54'0 0.0
2018-Jul-07 14:27N 54°37' W 005°54'0 0.0
2018-Jul-07 13:57N 54°37' W 005°54'0 0.0
2018-Jul-07 13:27N 54°37' W 005°54'0 0.0
2018-Jul-07 12:51N 54°37' W 005°54'0 0.0
2018-Jul-07 12:21N 54°37' W 005°54'0 0.0
2018-Jul-07 11:57N 54°37' W 005°54'0 0.0
2018-Jul-07 11:27N 54°37' W 005°54'0 0.0
2018-Jul-07 10:57N 54°37' W 005°54'0 0.0
2018-Jul-07 10:27N 54°37' W 005°54'0 0.0
2018-Jul-07 09:51N 54°37' W 005°54'0 0.0
2018-Jul-07 09:21N 54°37' W 005°54'0 0.0
2018-Jul-07 08:57N 54°37' W 005°54'0 0.0
2018-Jul-07 08:27N 54°37' W 005°54'0 0.0
2018-Jul-07 07:58N 54°37' W 005°54'0 0.0
2018-Jul-07 07:27N 54°37' W 005°54'0 0.0
2018-Jul-07 06:57N 54°37' W 005°54'0 0.0
2018-Jul-07 06:27N 54°37' W 005°54'0 0.0
2018-Jul-07 05:57N 54°37' W 005°54'0 0.0
2018-Jul-07 05:27N 54°37' W 005°54'0 0.0
2018-Jul-07 04:45N 54°37' W 005°54'0 0.0
2018-Jul-07 04:27N 54°37' W 005°54'0 0.0
2018-Jul-07 03:57N 54°37' W 005°54'0 0.0
2018-Jul-07 03:21N 54°37' W 005°54'0 0.0
2018-Jul-07 02:57N 54°37' W 005°54'0 0.0
2018-Jul-07 02:27N 54°37' W 005°54'0 0.0
2018-Jul-07 01:57N 54°37' W 005°54'0 0.0
2018-Jul-07 01:27N 54°37' W 005°54'0 0.0
2018-Jul-07 00:57N 54°37' W 005°54'0 0.0
2018-Jul-07 00:27N 54°37' W 005°54'0 0.0
2018-Jul-06 23:57N 54°37' W 005°54'0 0.0
2018-Jul-06 23:27N 54°37' W 005°54'0 0.0
2018-Jul-06 22:57N 54°37' W 005°54'0 0.0
2018-Jul-06 22:27N 54°37' W 005°54'0 0.0
2018-Jul-06 21:58N 54°37' W 005°54'0 0.0
2018-Jul-06 21:27N 54°37' W 005°54'0 0.0
2018-Jul-06 20:57N 54°37' W 005°54'0 0.0
2018-Jul-06 20:27N 54°37' W 005°54'0 0.0
2018-Jul-06 19:57N 54°37' W 005°54'0 0.0
2018-Jul-06 19:27N 54°37' W 005°54'0 0.0
2018-Jul-06 18:57N 54°37' W 005°54'0 0.0
2018-Jul-06 18:27N 54°37' W 005°54'0 0.0
2018-Jul-06 17:58N 54°37' W 005°54'0 0.0
2018-Jul-06 17:27N 54°37' W 005°54'0 0.0
2018-Jul-06 16:51N 54°37' W 005°54'0 0.0
2018-Jul-06 16:27N 54°37' W 005°54'0 0.0
2018-Jul-06 15:57N 54°37' W 005°54'0 0.0
2018-Jul-06 15:27N 54°37' W 005°54'0 0.0
2018-Jul-06 14:57N 54°37' W 005°54'0 0.0
2018-Jul-06 14:27N 54°37' W 005°54'0 0.0
2018-Jul-06 13:58N 54°37' W 005°54'1 1.5
2018-Jul-06 13:30N 54°38' W 005°53'4 8.6
2018-Jul-06 13:00N 54°41' W 005°48'5 9.9
2018-Jul-06 12:30N 54°44' W 005°41'0 0.8
2018-Jul-06 12:00N 54°43' W 005°40'2 3.4
2018-Jul-06 11:30N 54°42' W 005°40'1 1.2
2018-Jul-06 11:00N 54°41' W 005°41'0 0.0
2018-Jul-06 10:27N 54°41' W 005°41'0 0.0
2018-Jul-06 09:57N 54°41' W 005°41'0 0.0
2018-Jul-06 09:27N 54°41' W 005°41'0 0.0
2018-Jul-06 08:57N 54°41' W 005°41'0 0.0
2018-Jul-06 08:27N 54°41' W 005°41'0 0.0
2018-Jul-06 07:57N 54°41' W 005°41'0 0.0
2018-Jul-06 07:27N 54°41' W 005°41'0 1.0
2018-Jul-06 06:57N 54°42' W 005°41'3 6.4
2018-Jul-06 06:30N 54°43' W 005°36'611.1
2018-Jul-06 06:00N 54°42' W 005°27'4 8.4
2018-Jul-06 05:30N 54°38' W 005°24'4 8.4
2018-Jul-06 05:00N 54°34' W 005°21'4 8.5
2018-Jul-06 04:30N 54°31' W 005°17'5 9.6
2018-Jul-06 04:00N 54°26' W 005°15'5 9.9
2018-Jul-06 03:30N 54°21' W 005°16'5 9.5
2018-Jul-06 02:59N 54°16' W 005°17'5 9.7
2018-Jul-06 02:30N 54°11' W 005°18'9 9.6
2018-Jul-06 01:33N 54°02' W 005°20'63 5.5
2018-Jul-05 14:13N 53°00' W 005°33'710.1
2018-Jul-05 13:30N 52°53' W 005°34'3210.1
2018-Jul-05 10:21N 52°21' W 005°40'3 8.9
2018-Jul-05 10:00N 52°18' W 005°41'47 7.4
2018-Jul-05 03:36N 51°31' W 005°52'10 8.6
2018-Jul-05 02:26N 51°21' W 005°52'4 8.8
2018-Jul-05 02:00N 51°18' W 005°52'  

Dump ship's entire track history